Terminal Aerodrome Forecast
Issued by NWS Jacksonville, FL

Current Version | Previous Version | Text Only | Print | Product List | Glossary On
Versions: 1 2 3 4 5 6 7 8 9 10 11 12 13 14 15 16 17 18 19 20 21 22 23 24 25 26 27 28
276
FTUS42 KJAX 251723
TAFSSI
TAF
KSSI 251723Z 2518/2618 17009KT P6SM VCSH BKN040
     FM252200 18008KT 6SM TSRA FEW015 BKN040CB OVC080
      TEMPO 2523/2601 VRB20G30KT 1SM +TSRA BKN020CB
     FM260200 VRB05KT P6SM SCT030 BKN100=

USA.gov is the U.S. government's official web portal to all federal, state and local government web resources and services.